Capitol Logistics 980

Operating for DHL



LEMD
Adolfo Suárez Madrid-Barajas International Airport
Madrid, ES
LEBL
Barcelona International Airport
Barcelona, ES

Activity Log

Date Flight Route Aircraft Duration
05/18/2022 CPX980 PINA3B PINAR UN870 PONEN UT600 CASPE CASP1Z A30F 1h 07m
01/13/2022 CPX980 PINA3B PINAR UN870 PONEN UT600 CASPE CASP1E A30F 1h 00m

Route Details

Aircraft Information
Group: European Fleet
Types: A30F,A31F,B738
Route Data
Demand: M
Distance: 261nm
Duration: 1h 19m
Recm'd Route: PINA3B PINAR UN870 PONEN UT600 CASPE CASP1E
Origin Wx: LEMD 272030Z 06003KT 340V130 CAVOK 26/02 Q1017 NOSIG
Dest. Wx: LEBL 272030Z 21006KT CAVOK 22/14 Q1016 NOSIG
Notes:

Financial History
Total Freight: 128,203lbs
Average Load: 64,102lbs/flt
Fuel Used: 25,359lbs
Avg. Fuel Used: 12,680lbs/flt
Fuel Expense: $11,823
Avg. Fuel Expense: $5,911
Avg. Fuel Cost: $0.46/lbs
Total Gross Income: $274,226
Pilot Pay: $518
Total Expenses: $45,198
Total Revenue: $216,669
Average Revenue: $137,113.20